Time;durP1;ratioP1;P1;durP2;ratioP2;P2;SDS_P1;SDS_P2;PMS_P1;PMS_P2;Temp;Humidity;BMP_temperature;BMP_pressure;BME280_temperature;BME280_humidity;BME280_pressure;Samples;Min_cycle;Max_cycle;Signal;HPM_P1;HPM_P2
2024/03/27 00:00:49;;;;;;;;;;;;;;;10.09;80.09;93708.59;5086976;28;19954;-74
2024/03/27 00:03:14;;;;;;;;;;;;;;;10.09;80.37;93703.34;5085922;28;19976;-75
2024/03/27 00:05:40;;;;;;;;;;;;;;;10.08;80.34;93697.34;5087003;28;19934;-73
2024/03/27 00:08:06;;;;;;;;;;;;;;;10.08;80.82;93692.09;5086862;28;19953;-75
2024/03/27 00:10:32;;;;;;;;;;;;;;;10.08;81.01;93693.91;5086546;28;20137;-74
2024/03/27 00:12:58;;;;;;;;;;;;;;;10.06;80.42;93685.59;5085312;28;20298;-74
2024/03/27 00:15:24;;;;;;;;;;;;;;;10.05;80.31;93687.41;5087314;28;19977;-74
2024/03/27 00:17:49;;;;;;;;;;;;;;;10.05;79.60;93686.66;5086823;28;20171;-75
2024/03/27 00:20:15;;;;;;;;;;;;;;;10.04;80.68;93693.72;5086896;28;19958;-75
2024/03/27 00:22:41;;;;;;;;;;;;;;;10.03;80.33;93681.69;5086690;28;19937;-75
2024/03/27 00:25:08;;;;;;;;;;;;;;;10.02;82.69;93680.13;5087185;28;19929;-74
2024/03/27 00:27:33;;;;;;;;;;;;;;;10.00;81.34;93669.16;5086523;28;19937;-76
2024/03/27 00:29:59;;;;;;;;;;;;;;;9.96;81.74;93657.69;5087086;28;20026;-76
2024/03/27 00:32:25;;;;;;;;;;;;;;;9.93;80.95;93653.81;5087298;28;19941;-82
2024/03/27 00:34:51;;;;;;;;;;;;;;;9.89;81.87;93650.22;5086071;28;19945;-74
2024/03/27 00:37:17;;;;;;;;;;;;;;;9.85;82.53;93646.59;5086373;28;19939;-76
2024/03/27 00:39:42;;;;;;;;;;;;;;;9.81;82.90;93645.59;5086297;28;19940;-75
2024/03/27 00:42:08;;;;;;;;;;;;;;;9.78;83.02;93637.53;5086034;28;19937;-76
2024/03/27 00:44:34;;;;;;;;;;;;;;;9.72;83.47;93621.91;5085142;28;19939;-75
2024/03/27 00:47:00;;;;;;;;;;;;;;;9.65;83.08;93618.84;5086419;28;19938;-75
2024/03/27 00:49:26;;;;;;;;;;;;;;;9.60;83.53;93615.53;5086134;28;19934;-76
2024/03/27 00:51:52;;;;;;;;;;;;;;;9.54;83.77;93625.25;5085757;28;20006;-69
2024/03/27 00:54:19;;;;;;;;;;;;;;;9.48;84.48;93619.31;5086840;28;19935;-72
2024/03/27 00:56:44;;;;;;;;;;;;;;;9.44;84.74;93612.31;5085862;28;19964;-71
2024/03/27 00:59:10;;;;;;;;;;;;;;;9.39;85.17;93600.06;5086503;28;19935;-70
2024/03/27 01:01:36;;;;;;;;;;;;;;;9.33;85.22;93598.56;5086111;28;19990;-71
2024/03/27 01:04:02;;;;;;;;;;;;;;;9.29;85.38;93585.28;5085893;28;19959;-70
2024/03/27 01:06:28;;;;;;;;;;;;;;;9.23;85.79;93578.53;5085895;28;20259;-71
2024/03/27 01:08:53;;;;;;;;;;;;;;;9.20;85.83;93583.53;5085765;28;20110;-71
2024/03/27 01:11:19;;;;;;;;;;;;;;;9.16;85.91;93579.97;5086550;28;20100;-68
2024/03/27 01:13:45;;;;;;;;;;;;;;;9.12;85.90;93572.66;5086522;28;19936;-71
2024/03/27 01:16:11;;;;;;;;;;;;;;;9.10;85.72;93571.38;5085666;28;20012;-70
2024/03/27 01:18:37;;;;;;;;;;;;;;;9.06;85.50;93573.00;5085589;28;19939;-70
2024/03/27 01:21:03;;;;;;;;;;;;;;;9.00;86.36;93567.03;5085979;28;20331;-70
2024/03/27 01:23:29;;;;;;;;;;;;;;;8.98;86.64;93565.75;5086009;28;19963;-71
2024/03/27 01:25:55;;;;;;;;;;;;;;;8.94;86.06;93560.31;5085481;28;20236;-70
2024/03/27 01:28:21;;;;;;;;;;;;;;;8.89;86.59;93563.00;5085909;28;19935;-74
2024/03/27 01:30:47;;;;;;;;;;;;;;;8.86;86.74;93556.50;5085920;28;19940;-76
2024/03/27 01:33:13;;;;;;;;;;;;;;;8.83;86.82;93554.41;5085317;28;20002;-76
2024/03/27 01:35:45;;;;;;;;;;;;;;;8.79;86.29;93553.41;5085250;28;20107;-77
2024/03/27 01:38:11;;;;;;;;;;;;;;;8.76;87.73;93566.25;5084016;28;19942;-76
2024/03/27 01:40:37;;;;;;;;;;;;;;;8.72;87.28;93571.25;5083806;28;19963;-76
2024/03/27 01:43:03;;;;;;;;;;;;;;;8.68;86.92;93581.47;5084985;28;19934;-75
2024/03/27 01:45:29;;;;;;;;;;;;;;;8.63;87.51;93578.94;5083950;28;20107;-76
2024/03/27 01:47:55;;;;;;;;;;;;;;;8.59;87.28;93571.91;5085558;28;19935;-76
2024/03/27 01:50:28;;;;;;;;;;;;;;;8.52;87.80;93570.41;5084945;28;19940;-78
2024/03/27 01:52:55;;;;;;;;;;;;;;;8.47;88.00;93573.06;5085403;28;19936;-78
2024/03/27 01:55:21;;;;;;;;;;;;;;;8.45;87.80;93569.16;5084817;28;19941;-79
2024/03/27 01:57:48;;;;;;;;;;;;;;;8.41;89.15;93562.94;5084616;28;19967;-80
2024/03/27 02:00:14;;;;;;;;;;;;;;;8.37;88.22;93557.44;5085500;28;20158;-80
2024/03/27 02:02:40;;;;;;;;;;;;;;;8.34;89.56;93558.78;5083974;28;19930;-79
2024/03/27 02:05:10;;;;;;;;;;;;;;;8.32;89.30;93567.94;5085515;28;19955;-75
2024/03/27 02:07:39;;;;;;;;;;;;;;;8.29;89.80;93565.88;5084613;28;19936;-72
2024/03/27 02:10:06;;;;;;;;;;;;;;;8.26;91.22;93582.09;5084603;28;20122;-71
2024/03/27 02:12:32;;;;;;;;;;;;;;;8.23;89.36;93582.63;5084756;28;19939;-72
2024/03/27 02:15:01;;;;;;;;;;;;;;;8.20;90.79;93575.34;5084531;28;20234;-72
2024/03/27 02:17:27;;;;;;;;;;;;;;;8.16;91.81;93567.28;5084458;28;19933;-72
2024/03/27 02:19:53;;;;;;;;;;;;;;;8.12;87.69;93564.41;5084274;28;20169;-72
2024/03/27 02:22:19;;;;;;;;;;;;;;;8.06;91.63;93570.75;5085120;28;19934;-76
2024/03/27 02:24:48;;;;;;;;;;;;;;;8.03;92.01;93563.47;5084531;28;20129;-77
2024/03/27 02:27:14;;;;;;;;;;;;;;;7.99;92.19;93552.00;5084341;28;19934;-76
2024/03/27 02:29:40;;;;;;;;;;;;;;;7.97;92.27;93540.28;5084295;28;20114;-75
2024/03/27 02:32:05;;;;;;;;;;;;;;;7.96;93.33;93543.94;5084275;28;19937;-75
2024/03/27 02:34:31;;;;;;;;;;;;;;;7.93;93.03;93529.59;5084196;28;19936;-75
2024/03/27 02:36:57;;;;;;;;;;;;;;;7.90;94.43;93528.34;5084216;28;20006;-75
2024/03/27 02:39:23;;;;;;;;;;;;;;;7.88;93.80;93519.22;5083603;28;20214;-74
2024/03/27 02:41:49;;;;;;;;;;;;;;;7.83;93.54;93519.25;5084020;28;19985;-76
2024/03/27 02:44:15;;;;;;;;;;;;;;;7.78;94.37;93520.06;5084129;28;19940;-77
2024/03/27 02:46:41;;;;;;;;;;;;;;;7.76;93.50;93510.97;5084846;28;19937;-76
2024/03/27 02:49:07;;;;;;;;;;;;;;;7.74;95.09;93513.84;5084885;28;19935;-76
2024/03/27 02:51:33;;;;;;;;;;;;;;;7.73;96.05;93512.28;5084788;28;19937;-76
2024/03/27 02:53:59;;;;;;;;;;;;;;;7.73;94.67;93499.25;5083991;28;19943;-76
2024/03/27 02:56:24;;;;;;;;;;;;;;;7.73;93.70;93497.41;5084417;28;20000;-76
2024/03/27 02:58:50;;;;;;;;;;;;;;;7.72;93.18;93492.47;5084547;28;19943;-77
2024/03/27 03:01:16;;;;;;;;;;;;;;;7.74;92.94;93495.56;5083955;28;20147;-69
2024/03/27 03:03:42;;;;;;;;;;;;;;;7.76;93.48;93496.09;5084731;28;20200;-73
2024/03/27 03:06:08;;;;;;;;;;;;;;;7.77;93.72;93497.66;5083898;28;19939;-73
2024/03/27 03:08:33;;;;;;;;;;;;;;;7.77;91.64;93484.63;5083812;28;19952;-73
2024/03/27 03:10:59;;;;;;;;;;;;;;;7.79;93.03;93486.94;5083866;28;19940;-72
2024/03/27 03:13:25;;;;;;;;;;;;;;;7.79;92.40;93466.88;5084737;28;19933;-72
2024/03/27 03:15:51;;;;;;;;;;;;;;;7.77;91.97;93463.75;5087936;28;19985;-73
2024/03/27 03:18:17;;;;;;;;;;;;;;;7.75;91.96;93458.03;5087839;28;19939;-74
2024/03/27 03:20:43;;;;;;;;;;;;;;;7.73;92.17;93449.69;5088281;28;19952;-71
2024/03/27 03:23:08;;;;;;;;;;;;;;;7.69;92.19;93446.84;5087845;28;19940;-75
2024/03/27 03:25:34;;;;;;;;;;;;;;;7.65;92.17;93453.66;5086651;28;19938;-75
2024/03/27 03:28:00;;;;;;;;;;;;;;;7.60;92.22;93440.66;5087688;28;19961;-75
2024/03/27 03:30:26;;;;;;;;;;;;;;;7.58;92.90;93431.53;5087653;28;20176;-75
2024/03/27 03:32:52;;;;;;;;;;;;;;;7.52;92.95;93431.59;5087603;28;19936;-75
2024/03/27 03:35:17;;;;;;;;;;;;;;;7.48;93.73;93435.03;5087541;28;20278;-77
2024/03/27 03:37:43;;;;;;;;;;;;;;;7.41;93.18;93437.94;5087758;28;19948;-68
2024/03/27 03:40:09;;;;;;;;;;;;;;;7.37;93.94;93438.72;5086341;28;19948;-79
2024/03/27 03:42:35;;;;;;;;;;;;;;;7.33;93.03;93446.34;5087394;28;19942;-78
2024/03/27 03:45:01;;;;;;;;;;;;;;;7.29;93.99;93459.13;5087366;28;19999;-79
2024/03/27 03:47:28;;;;;;;;;;;;;;;7.26;94.42;93459.66;5087331;28;20224;-79
2024/03/27 03:49:54;;;;;;;;;;;;;;;7.24;94.83;93461.75;5087308;28;19945;-79
2024/03/27 03:52:19;;;;;;;;;;;;;;;7.22;94.34;93465.69;5087997;28;20010;-78
2024/03/27 03:54:45;;;;;;;;;;;;;;;7.20;95.29;93476.38;5087427;28;19949;-76
2024/03/27 03:57:11;;;;;;;;;;;;;;;7.20;95.28;93475.59;5087347;28;20267;-68
2024/03/27 03:59:37;;;;;;;;;;;;;;;7.17;94.92;93482.13;5087605;28;19998;-71
2024/03/27 04:02:03;;;;;;;;;;;;;;;7.14;95.06;93472.25;5085901;28;19958;-71
2024/03/27 04:04:28;;;;;;;;;;;;;;;7.12;95.53;93474.34;5085943;28;19935;-71
2024/03/27 04:06:54;;;;;;;;;;;;;;;7.10;94.85;93460.81;5087801;28;19936;-71
2024/03/27 04:09:20;;;;;;;;;;;;;;;7.06;96.04;93451.97;5086829;28;19993;-71
2024/03/27 04:11:46;;;;;;;;;;;;;;;7.01;95.08;93433.75;5086899;28;20000;-70
2024/03/27 04:14:12;;;;;;;;;;;;;;;6.95;96.20;93434.81;5086896;28;19945;-67
2024/03/27 04:16:38;;;;;;;;;;;;;;;6.82;98.90;93449.97;5086797;28;19939;-73
2024/03/27 04:19:04;;;;;;;;;;;;;;;6.75;99.04;93454.72;5086723;28;19940;-73
2024/03/27 04:21:30;;;;;;;;;;;;;;;6.74;98.33;93460.19;5086553;28;20026;-75
2024/03/27 04:23:56;;;;;;;;;;;;;;;6.75;99.19;93466.97;5086835;28;19964;-74
2024/03/27 04:26:22;;;;;;;;;;;;;;;6.76;99.40;93468.50;5085854;28;19936;-74
2024/03/27 04:28:48;;;;;;;;;;;;;;;6.78;99.35;93469.78;5086568;28;19932;-73
2024/03/27 04:31:13;;;;;;;;;;;;;;;6.79;99.04;93468.00;5086481;28;20190;-66
2024/03/27 04:33:39;;;;;;;;;;;;;;;6.78;98.91;93458.59;5086505;28;19947;-75
2024/03/27 04:36:05;;;;;;;;;;;;;;;6.78;99.00;93461.22;5087260;28;20135;-68
2024/03/27 04:38:31;;;;;;;;;;;;;;;6.77;98.47;93468.25;5086870;28;20105;-69
2024/03/27 04:40:57;;;;;;;;;;;;;;;6.74;98.95;93462.78;5086280;28;19949;-68
2024/03/27 04:43:23;;;;;;;;;;;;;;;6.73;98.96;93461.25;5086273;28;19935;-68
2024/03/27 04:45:49;;;;;;;;;;;;;;;6.69;98.91;93451.34;5086302;28;19934;-68
2024/03/27 04:48:15;;;;;;;;;;;;;;;6.68;99.22;93451.63;5086236;28;20240;-68
2024/03/27 04:50:42;;;;;;;;;;;;;;;6.63;99.66;93441.22;5086155;28;19936;-81
2024/03/27 04:53:08;;;;;;;;;;;;;;;6.61;99.74;93436.28;5086184;28;19941;-75
2024/03/27 04:55:34;;;;;;;;;;;;;;;6.62;100.00;93440.44;5086604;28;20010;-75
2024/03/27 04:58:00;;;;;;;;;;;;;;;6.63;100.00;93430.81;5084725;28;20255;-76
2024/03/27 05:00:25;;;;;;;;;;;;;;;6.63;100.00;93423.78;5086434;28;19940;-76
2024/03/27 05:02:51;;;;;;;;;;;;;;;6.66;100.00;93422.47;5085894;28;19932;-77
2024/03/27 05:05:17;;;;;;;;;;;;;;;6.68;100.00;93415.94;5085685;28;20235;-76
2024/03/27 05:07:43;;;;;;;;;;;;;;;6.74;100.00;93423.72;5085779;28;19977;-76
2024/03/27 05:10:10;;;;;;;;;;;;;;;6.74;100.00;93403.69;5086099;28;19937;-78
2024/03/27 05:12:36;;;;;;;;;;;;;;;6.79;100.00;93414.06;5085739;28;20117;-74
2024/03/27 05:15:02;;;;;;;;;;;;;;;6.83;100.00;93401.31;5086524;28;19930;-74
2024/03/27 05:17:28;;;;;;;;;;;;;;;6.86;100.00;93398.16;5085623;28;20005;-74
2024/03/27 05:19:54;;;;;;;;;;;;;;;6.90;100.00;93391.34;5085582;28;19937;-74
2024/03/27 05:22:26;;;;;;;;;;;;;;;6.92;99.58;93394.47;5085430;28;19950;-75
2024/03/27 05:24:52;;;;;;;;;;;;;;;6.91;100.00;93398.91;5085531;28;19944;-74
2024/03/27 05:27:18;;;;;;;;;;;;;;;6.88;100.00;93399.44;5085450;28;20123;-67
2024/03/27 05:29:44;;;;;;;;;;;;;;;6.86;100.00;93406.72;5085455;28;19932;-68
2024/03/27 05:32:10;;;;;;;;;;;;;;;6.88;100.00;93393.44;5085381;28;19932;-67
2024/03/27 05:34:36;;;;;;;;;;;;;;;6.88;100.00;93388.25;5085859;28;19939;-68
2024/03/27 05:37:02;;;;;;;;;;;;;;;6.89;100.00;93392.41;5083151;28;19940;-68
2024/03/27 05:39:28;;;;;;;;;;;;;;;6.89;100.00;93377.56;5086024;28;19938;-68
2024/03/27 05:41:56;;;;;;;;;;;;;;;6.89;100.00;93369.75;5085073;28;19944;-68
2024/03/27 05:44:21;;;;;;;;;;;;;;;6.89;100.00;93377.56;5085069;28;19936;-67
2024/03/27 05:46:47;;;;;;;;;;;;;;;6.89;100.00;93368.97;5085096;28;19945;-68
2024/03/27 05:49:13;;;;;;;;;;;;;;;6.89;100.00;93377.56;5085541;28;19933;-72
2024/03/27 05:51:39;;;;;;;;;;;;;;;6.93;100.00;93377.81;5085751;28;20112;-71
2024/03/27 05:54:05;;;;;;;;;;;;;;;6.98;100.00;93395.22;5084929;28;19951;-71
2024/03/27 05:56:31;;;;;;;;;;;;;;;7.02;100.00;93385.81;5084699;28;19968;-71
2024/03/27 05:58:57;;;;;;;;;;;;;;;7.06;100.00;93379.78;5084806;28;19948;-70
2024/03/27 06:01:23;;;;;;;;;;;;;;;7.13;100.00;93395.13;5084688;28;19959;-71
2024/03/27 06:03:49;;;;;;;;;;;;;;;7.14;100.00;93375.03;5084755;28;19940;-76
2024/03/27 06:06:15;;;;;;;;;;;;;;;7.15;100.00;93380.00;5084749;28;19940;-70
2024/03/27 06:08:41;;;;;;;;;;;;;;;7.15;100.00;93377.38;5084580;28;19945;-77
2024/03/27 06:11:08;;;;;;;;;;;;;;;7.17;100.00;93379.72;5085051;28;19948;-77
2024/03/27 06:13:34;;;;;;;;;;;;;;;7.22;100.00;93390.88;5084567;28;19947;-77
2024/03/27 06:16:00;;;;;;;;;;;;;;;7.26;100.00;93385.91;5085068;28;19937;-77
2024/03/27 06:18:26;;;;;;;;;;;;;;;7.30;100.00;93384.31;5084472;28;19941;-77
2024/03/27 06:20:52;;;;;;;;;;;;;;;7.34;100.00;93382.72;5084605;28;19944;-77
2024/03/27 06:23:18;;;;;;;;;;;;;;;7.37;100.00;93376.19;5084465;28;19936;-75
2024/03/27 06:25:56;;;;;;;;;;;;;;;7.39;100.00;93377.47;5084392;28;19955;-70
2024/03/27 06:28:22;;;;;;;;;;;;;;;7.40;100.00;93373.03;5084341;28;20104;-70
2024/03/27 06:30:48;;;;;;;;;;;;;;;7.42;100.00;93374.31;5084328;28;19959;-70
2024/03/27 06:33:15;;;;;;;;;;;;;;;7.43;100.00;93364.66;5084304;28;20225;-70
2024/03/27 06:35:42;;;;;;;;;;;;;;;7.43;100.00;93365.47;5085012;28;19935;-70
2024/03/27 06:38:07;;;;;;;;;;;;;;;7.44;100.00;93358.41;5084242;28;19938;-70
2024/03/27 06:40:33;;;;;;;;;;;;;;;7.46;100.00;93364.13;5084193;28;19998;-77
2024/03/27 06:42:59;;;;;;;;;;;;;;;7.48;100.00;93356.81;5084136;28;19960;-67
2024/03/27 06:45:25;;;;;;;;;;;;;;;7.50;100.00;93352.09;5084119;28;19944;-73
2024/03/27 06:47:51;;;;;;;;;;;;;;;7.54;100.00;93347.91;5083795;28;19939;-73
2024/03/27 06:50:16;;;;;;;;;;;;;;;7.58;100.00;93348.09;5084037;28;19933;-73
2024/03/27 06:52:42;;;;;;;;;;;;;;;7.62;100.00;93347.31;5084044;28;19943;-73
2024/03/27 06:55:08;;;;;;;;;;;;;;;7.65;100.00;93335.53;5084061;28;19933;-73
2024/03/27 06:57:34;;;;;;;;;;;;;;;7.68;100.00;93348.78;5083835;28;19966;-74
2024/03/27 07:00:04;;;;;;;;;;;;;;;7.73;100.00;93342.75;5083227;28;21144;-74
2024/03/27 07:02:30;;;;;;;;;;;;;;;7.76;100.00;93344.81;5083931;28;20270;-74
2024/03/27 07:04:56;;;;;;;;;;;;;;;7.79;100.00;93330.44;5083933;28;19933;-74
2024/03/27 07:07:22;;;;;;;;;;;;;;;7.81;100.00;93334.34;5083943;28;19930;-74
2024/03/27 07:09:48;;;;;;;;;;;;;;;7.81;100.00;93333.53;5084374;28;19958;-73
2024/03/27 07:12:14;;;;;;;;;;;;;;;7.81;100.00;93360.41;5083896;28;20125;-73
2024/03/27 07:14:40;;;;;;;;;;;;;;;7.81;100.00;93354.41;5084551;28;19933;-73
2024/03/27 07:17:06;;;;;;;;;;;;;;;7.80;100.00;93351.03;5083721;28;19948;-66
2024/03/27 07:19:32;;;;;;;;;;;;;;;7.82;100.00;93367.19;5083798;28;19930;-71
2024/03/27 07:21:58;;;;;;;;;;;;;;;7.87;100.00;93368.97;5083711;28;19951;-77
2024/03/27 07:24:23;;;;;;;;;;;;;;;7.93;100.00;93378.28;5083770;28;19945;-78
2024/03/27 07:26:55;;;;;;;;;;;;;;;8.02;100.00;93387.09;5084008;28;19927;-80
2024/03/27 07:29:21;;;;;;;;;;;;;;;8.14;100.00;93384.06;5084250;28;20102;-83
2024/03/27 07:31:47;;;;;;;;;;;;;;;8.26;100.00;93381.09;5083827;28;19948;-77
2024/03/27 07:34:13;;;;;;;;;;;;;;;8.35;100.00;93374.19;5083769;28;19972;-83
2024/03/27 07:36:39;;;;;;;;;;;;;;;8.46;100.00;93385.31;5083842;28;19938;-76
2024/03/27 07:39:05;;;;;;;;;;;;;;;8.56;100.00;93387.81;5083954;28;19989;-75
2024/03/27 07:41:31;;;;;;;;;;;;;;;8.70;100.00;93378.22;5083721;28;19951;-74
2024/03/27 07:43:57;;;;;;;;;;;;;;;8.82;100.00;93375.22;5083033;28;19938;-75
2024/03/27 07:46:22;;;;;;;;;;;;;;;8.90;100.00;93374.59;5083714;28;19931;-76
2024/03/27 07:48:49;;;;;;;;;;;;;;;8.96;100.00;93372.66;5083932;28;19934;-75
2024/03/27 07:51:16;;;;;;;;;;;;;;;9.06;100.00;93406.50;5083652;28;19931;-73
2024/03/27 07:53:41;;;;;;;;;;;;;;;9.47;100.00;93381.56;5083443;28;19939;-74
2024/03/27 07:56:08;;;;;;;;;;;;;;;9.78;100.00;93339.22;5082286;28;20049;-75
2024/03/27 07:58:33;;;;;;;;;;;;;;;9.90;100.00;93318.59;5084285;28;19945;-74
2024/03/27 08:00:59;;;;;;;;;;;;;;;9.94;100.00;93330.81;5085088;28;19940;-74
2024/03/27 08:03:28;;;;;;;;;;;;;;;9.99;99.12;93326.53;5087068;28;20225;-75
2024/03/27 08:05:53;;;;;;;;;;;;;;;10.03;98.55;93343.22;5087847;28;20115;-75
2024/03/27 08:08:20;;;;;;;;;;;;;;;10.09;97.88;93345.44;5087542;28;19951;-75
2024/03/27 08:10:55;;;;;;;;;;;;;;;10.14;97.79;93350.59;5086957;28;20221;-75
2024/03/27 08:13:21;;;;;;;;;;;;;;;10.19;95.06;93338.50;5087845;28;19939;-77
2024/03/27 08:15:47;;;;;;;;;;;;;;;10.23;99.95;93353.31;5086987;28;19974;-69
2024/03/27 08:18:13;;;;;;;;;;;;;;;10.36;98.22;93354.41;5087674;28;19941;-69
2024/03/27 08:20:39;;;;;;;;;;;;;;;10.56;97.73;93351.38;5086900;28;19957;-69
2024/03/27 08:23:05;;;;;;;;;;;;;;;10.88;99.54;93349.66;5086711;28;20251;-69
2024/03/27 08:25:33;;;;;;;;;;;;;;;11.21;94.60;93333.72;5086739;28;20190;-69
2024/03/27 08:27:59;;;;;;;;;;;;;;;11.44;91.75;93326.63;5087355;28;20096;-69
2024/03/27 08:30:25;;;;;;;;;;;;;;;11.60;89.22;93328.88;5087221;28;19932;-69
2024/03/27 08:32:50;;;;;;;;;;;;;;;11.74;89.72;93324.34;5086719;28;19944;-74
2024/03/27 08:35:17;;;;;;;;;;;;;;;11.83;88.90;93324.38;5086627;28;19930;-68
2024/03/27 08:37:43;;;;;;;;;;;;;;;11.97;90.64;93346.84;5086421;28;20136;-69
2024/03/27 08:40:10;;;;;;;;;;;;;;;12.29;90.42;93352.09;5086949;28;19945;-68
2024/03/27 08:42:35;;;;;;;;;;;;;;;12.71;86.24;93344.63;5085242;28;19975;-69
2024/03/27 08:45:01;;;;;;;;;;;;;;;13.13;84.44;93353.63;5087182;28;19989;-69
2024/03/27 08:47:30;;;;;;;;;;;;;;;13.48;81.93;93356.28;5086307;28;20118;-69
2024/03/27 08:49:56;;;;;;;;;;;;;;;13.87;80.20;93359.75;5085152;28;20218;-79
2024/03/27 08:52:22;;;;;;;;;;;;;;;14.18;80.57;93358.72;5087042;28;20210;-71
2024/03/27 08:54:52;;;;;;;;;;;;;;;14.36;77.10;93368.13;5085007;28;19941;-70
2024/03/27 08:57:18;;;;;;;;;;;;;;;14.52;73.92;93339.34;5085926;28;19968;-70
2024/03/27 08:59:43;;;;;;;;;;;;;;;14.61;75.63;93358.56;5086070;28;19941;-70
2024/03/27 09:02:09;;;;;;;;;;;;;;;14.58;73.53;93364.47;5086748;28;19966;-70
2024/03/27 09:04:35;;;;;;;;;;;;;;;14.54;73.56;93344.31;5085956;28;19960;-71
2024/03/27 09:07:01;;;;;;;;;;;;;;;14.49;73.00;93365.56;5085972;28;20131;-70
2024/03/27 09:09:27;;;;;;;;;;;;;;;14.31;74.49;93351.72;5085793;28;19955;-78
2024/03/27 09:11:52;;;;;;;;;;;;;;;14.18;75.46;93348.97;5085651;28;19962;-75
2024/03/27 09:14:18;;;;;;;;;;;;;;;14.08;76.27;93351.19;5085777;28;19943;-75
2024/03/27 09:16:44;;;;;;;;;;;;;;;13.99;74.56;93380.19;5086280;28;19943;-75
2024/03/27 09:19:10;;;;;;;;;;;;;;;13.89;74.72;93381.28;5085170;28;19946;-75
2024/03/27 09:21:36;;;;;;;;;;;;;;;13.84;77.88;93391.19;5085605;28;19959;-75
2024/03/27 09:24:02;;;;;;;;;;;;;;;13.81;75.52;93397.88;5085622;28;19940;-75
2024/03/27 09:26:28;;;;;;;;;;;;;;;13.78;77.72;93409.03;5086118;28;19934;-74
2024/03/27 09:28:54;;;;;;;;;;;;;;;13.79;76.10;93405.31;5086044;28;19942;-71
2024/03/27 09:31:20;;;;;;;;;;;;;;;13.75;78.68;93430.72;5085570;28;20253;-76
2024/03/27 09:33:45;;;;;;;;;;;;;;;13.77;78.67;93425.91;5084334;28;19939;-76
2024/03/27 09:36:12;;;;;;;;;;;;;;;13.86;79.26;93434.59;5086094;28;19938;-76
2024/03/27 09:38:38;;;;;;;;;;;;;;;13.93;78.52;93428.84;5084285;28;20149;-77
2024/03/27 09:41:03;;;;;;;;;;;;;;;14.17;79.60;93423.06;5086055;28;19944;-75
2024/03/27 09:43:31;;;;;;;;;;;;;;;14.65;77.94;93427.25;5085811;28;20197;-76
2024/03/27 09:45:57;;;;;;;;;;;;;;;15.00;75.94;93414.66;5085289;28;19941;-73
2024/03/27 09:48:26;;;;;;;;;;;;;;;15.23;73.63;93423.06;5084439;28;19956;-77
2024/03/27 09:50:55;;;;;;;;;;;;;;;15.36;70.03;93412.56;5085182;28;19940;-77
2024/03/27 09:53:21;;;;;;;;;;;;;;;15.36;71.74;93423.91;5084072;28;20101;-78
2024/03/27 09:55:48;;;;;;;;;;;;;;;15.25;71.72;93414.06;5085876;28;20116;-77
2024/03/27 09:58:17;;;;;;;;;;;;;;;15.17;68.38;93407.72;5085148;28;19965;-78
2024/03/27 10:00:43;;;;;;;;;;;;;;;15.19;72.60;93410.81;5085568;28;19948;-78
2024/03/27 10:03:09;;;;;;;;;;;;;;;15.52;73.23;93428.63;5084997;28;19969;-73
2024/03/27 10:05:35;;;;;;;;;;;;;;;16.00;72.83;93425.44;5085502;28;20128;-75
2024/03/27 10:08:06;;;;;;;;;;;;;;;16.46;69.68;93414.06;5084011;28;19964;-75
2024/03/27 10:10:32;;;;;;;;;;;;;;;16.48;66.66;93412.63;5085500;28;20120;-75
2024/03/27 10:12:58;;;;;;;;;;;;;;;16.38;67.40;93410.44;5084658;28;19952;-75
2024/03/27 10:15:25;;;;;;;;;;;;;;;16.12;68.87;93416.75;5084843;28;19937;-76
2024/03/27 10:17:51;;;;;;;;;;;;;;;15.88;69.36;93425.38;5084618;28;19941;-75
2024/03/27 10:20:17;;;;;;;;;;;;;;;15.61;69.69;93424.03;5085255;28;19927;-75
2024/03/27 10:22:43;;;;;;;;;;;;;;;15.36;69.36;93425.78;5084102;28;19954;-79
2024/03/27 10:25:09;;;;;;;;;;;;;;;15.18;73.46;93446.22;5084907;28;19934;-76
2024/03/27 10:27:36;;;;;;;;;;;;;;;14.99;71.91;93454.56;5084496;28;19938;-78
2024/03/27 10:30:02;;;;;;;;;;;;;;;14.77;74.42;93466.91;5067192;28;19947;-78
2024/03/27 10:32:30;;;;;;;;;;;;;;;14.66;74.09;93457.03;5085172;28;19972;-78
2024/03/27 10:34:56;;;;;;;;;;;;;;;14.56;74.55;93452.91;5084294;28;19960;-77
2024/03/27 10:37:22;;;;;;;;;;;;;;;14.48;76.38;93454.44;5085038;28;19951;-77
2024/03/27 10:39:49;;;;;;;;;;;;;;;14.32;75.66;93462.09;5084931;28;19945;-67
2024/03/27 10:42:22;;;;;;;;;;;;;;;14.26;75.23;93467.81;5084185;28;19950;-75
2024/03/27 10:44:49;;;;;;;;;;;;;;;14.20;78.22;93477.78;5084178;28;20117;-80
2024/03/27 10:47:19;;;;;;;;;;;;;;;14.19;77.58;93466.47;5084207;28;19943;-81
2024/03/27 10:49:45;;;;;;;;;;;;;;;14.12;76.70;93478.56;5082884;28;19949;-80
2024/03/27 10:52:11;;;;;;;;;;;;;;;13.89;77.47;93477.97;5084991;28;20110;-79
2024/03/27 10:54:38;;;;;;;;;;;;;;;13.72;77.32;93499.81;5084075;28;20224;-79
2024/03/27 10:57:05;;;;;;;;;;;;;;;13.43;77.61;93509.06;5083876;28;20182;-79
2024/03/27 10:59:31;;;;;;;;;;;;;;;13.13;78.51;93511.47;5084004;28;19945;-74
2024/03/27 11:02:01;;;;;;;;;;;;;;;12.92;80.14;93523.63;5084493;28;19959;-69
2024/03/27 11:04:31;;;;;;;;;;;;;;;12.71;81.82;93528.63;5084275;28;20126;-69
2024/03/27 11:06:57;;;;;;;;;;;;;;;12.62;82.16;93527.81;5084200;28;19986;-69
2024/03/27 11:09:23;;;;;;;;;;;;;;;12.55;82.07;93542.16;5083855;28;19976;-69
2024/03/27 11:11:50;;;;;;;;;;;;;;;12.42;82.96;93550.91;5084355;28;19935;-68
2024/03/27 11:14:19;;;;;;;;;;;;;;;12.23;84.34;93571.34;5083850;28;19938;-69
2024/03/27 11:16:49;;;;;;;;;;;;;;;11.99;85.01;93590.78;5083863;28;20226;-75
2024/03/27 11:19:15;;;;;;;;;;;;;;;11.79;86.71;93591.97;5082835;28;19937;-79
2024/03/27 11:21:40;;;;;;;;;;;;;;;11.66;87.38;93611.91;5083846;28;19943;-68
2024/03/27 11:24:10;;;;;;;;;;;;;;;11.72;87.55;93604.72;5083743;28;19953;-68
2024/03/27 11:26:36;;;;;;;;;;;;;;;11.70;87.36;93609.47;5083007;28;20223;-69
2024/03/27 11:29:04;;;;;;;;;;;;;;;11.55;86.39;93610.56;5084254;28;19931;-69
2024/03/27 11:31:39;;;;;;;;;;;;;;;11.49;87.33;93617.00;5083952;28;19939;-69
2024/03/27 11:34:05;;;;;;;;;;;;;;;11.40;87.49;93623.97;5084031;28;19940;-69
2024/03/27 11:36:31;;;;;;;;;;;;;;;11.22;87.87;93623.78;5087636;28;19937;-74
2024/03/27 11:38:57;;;;;;;;;;;;;;;11.14;88.29;93627.06;5088116;28;19944;-75
2024/03/27 11:41:23;;;;;;;;;;;;;;;11.14;88.36;93640.97;5087541;28;19945;-76
2024/03/27 11:43:50;;;;;;;;;;;;;;;11.09;86.85;93629.81;5087656;28;19972;-76
2024/03/27 11:46:16;;;;;;;;;;;;;;;11.12;88.25;93653.59;5087990;28;19961;-76
2024/03/27 11:48:42;;;;;;;;;;;;;;;11.07;88.09;93651.06;5087417;28;20219;-76
2024/03/27 11:51:08;;;;;;;;;;;;;;;11.09;86.46;93664.66;5087401;28;19937;-75
2024/03/27 11:53:35;;;;;;;;;;;;;;;11.08;86.41;93655.22;5087797;28;19952;-69
2024/03/27 11:56:01;;;;;;;;;;;;;;;11.16;85.54;93649.31;5087591;28;19930;-78
2024/03/27 11:58:27;;;;;;;;;;;;;;;11.23;86.22;93653.41;5086120;28;19941;-69
2024/03/27 12:00:54;;;;;;;;;;;;;;;11.29;85.31;93652.25;5087100;28;19943;-69
2024/03/27 12:03:20;;;;;;;;;;;;;;;11.37;85.18;93651.56;5087550;28;19953;-69
2024/03/27 12:05:46;;;;;;;;;;;;;;;11.47;84.68;93648.00;5087007;28;20125;-69
2024/03/27 12:08:12;;;;;;;;;;;;;;;11.56;85.86;93660.13;5086842;28;19969;-69
2024/03/27 12:10:41;;;;;;;;;;;;;;;11.65;82.38;93644.47;5087455;28;19937;-69
2024/03/27 12:13:07;;;;;;;;;;;;;;;11.64;83.03;93656.03;5086946;28;20250;-69
2024/03/27 12:15:33;;;;;;;;;;;;;;;11.54;81.01;93643.13;5086831;28;19937;-76
2024/03/27 12:18:00;;;;;;;;;;;;;;;11.55;81.92;93652.56;5069025;28;19940;-76
2024/03/27 12:20:32;;;;;;;;;;;;;;;11.68;82.11;93651.00;5086779;28;19941;-77
2024/03/27 12:22:58;;;;;;;;;;;;;;;11.76;79.87;93643.22;5087205;28;19954;-77
2024/03/27 12:25:28;;;;;;;;;;;;;;;11.83;81.27;93649.91;5086700;28;19980;-76
2024/03/27 12:27:53;;;;;;;;;;;;;;;11.86;82.07;93650.06;5087075;28;19938;-75
2024/03/27 12:30:19;;;;;;;;;;;;;;;11.90;79.82;93648.44;5086672;28;19945;-70
2024/03/27 12:32:45;;;;;;;;;;;;;;;11.95;76.78;93640.47;5086047;28;20209;-77
2024/03/27 12:35:11;;;;;;;;;;;;;;;11.95;78.18;93637.09;5087416;28;20107;-67
2024/03/27 12:37:37;;;;;;;;;;;;;;;12.04;78.20;93634.53;5086496;28;19933;-67
2024/03/27 12:40:04;;;;;;;;;;;;;;;12.13;77.50;93643.25;5086394;28;19938;-66
2024/03/27 12:42:29;;;;;;;;;;;;;;;12.13;76.25;93651.91;5086585;28;20134;-66
2024/03/27 12:44:55;;;;;;;;;;;;;;;12.10;76.53;93644.63;5087128;28;19938;-66